sensor_id;sensor_type;location;lat;lon;timestamp;P1;durP1;ratioP1;P2;durP2;ratioP2
79624;SDS011;69101;45.534;10.218;2023-04-24T00:01:35;9.43;;;3.55;;
79624;SDS011;69101;45.534;10.218;2023-04-24T00:04:01;9.50;;;3.80;;
79624;SDS011;69101;45.534;10.218;2023-04-24T00:06:29;9.75;;;3.78;;
79624;SDS011;69101;45.534;10.218;2023-04-24T00:08:58;9.65;;;3.65;;
79624;SDS011;69101;45.534;10.218;2023-04-24T00:11:25;10.60;;;3.85;;
79624;SDS011;69101;45.534;10.218;2023-04-24T00:13:51;10.75;;;3.97;;
79624;SDS011;69101;45.534;10.218;2023-04-24T00:16:16;10.05;;;3.78;;
79624;SDS011;69101;45.534;10.218;2023-04-24T00:18:42;10.27;;;3.97;;
79624;SDS011;69101;45.534;10.218;2023-04-24T00:21:10;10.00;;;4.00;;
79624;SDS011;69101;45.534;10.218;2023-04-24T00:23:36;9.68;;;3.85;;
79624;SDS011;69101;45.534;10.218;2023-04-24T00:26:01;10.63;;;4.15;;
79624;SDS011;69101;45.534;10.218;2023-04-24T00:28:27;10.25;;;3.90;;
79624;SDS011;69101;45.534;10.218;2023-04-24T00:30:53;9.80;;;3.95;;
79624;SDS011;69101;45.534;10.218;2023-04-24T00:33:18;10.43;;;4.05;;
79624;SDS011;69101;45.534;10.218;2023-04-24T00:35:44;10.05;;;4.10;;
79624;SDS011;69101;45.534;10.218;2023-04-24T00:38:09;10.18;;;3.88;;
79624;SDS011;69101;45.534;10.218;2023-04-24T00:40:35;10.85;;;4.20;;
79624;SDS011;69101;45.534;10.218;2023-04-24T00:43:00;10.05;;;4.13;;
79624;SDS011;69101;45.534;10.218;2023-04-24T00:45:25;10.07;;;4.00;;
79624;SDS011;69101;45.534;10.218;2023-04-24T00:47:52;10.00;;;4.18;;
79624;SDS011;69101;45.534;10.218;2023-04-24T00:50:18;10.00;;;3.75;;
79624;SDS011;69101;45.534;10.218;2023-04-24T00:52:44;10.70;;;3.90;;
79624;SDS011;69101;45.534;10.218;2023-04-24T00:55:10;10.48;;;3.90;;
79624;SDS011;69101;45.534;10.218;2023-04-24T00:57:35;9.38;;;3.85;;
79624;SDS011;69101;45.534;10.218;2023-04-24T01:00:01;10.02;;;3.88;;
79624;SDS011;69101;45.534;10.218;2023-04-24T01:02:28;10.52;;;4.20;;
79624;SDS011;69101;45.534;10.218;2023-04-24T01:04:54;10.02;;;3.92;;
79624;SDS011;69101;45.534;10.218;2023-04-24T01:07:20;9.93;;;3.90;;
79624;SDS011;69101;45.534;10.218;2023-04-24T01:09:46;9.30;;;3.60;;
79624;SDS011;69101;45.534;10.218;2023-04-24T01:12:14;9.50;;;3.70;;
79624;SDS011;69101;45.534;10.218;2023-04-24T01:14:40;9.40;;;3.50;;
79624;SDS011;69101;45.534;10.218;2023-04-24T01:17:05;10.38;;;3.90;;
79624;SDS011;69101;45.534;10.218;2023-04-24T01:19:31;9.77;;;3.53;;
79624;SDS011;69101;45.534;10.218;2023-04-24T01:21:58;9.88;;;3.83;;
79624;SDS011;69101;45.534;10.218;2023-04-24T01:26:52;10.00;;;3.60;;
79624;SDS011;69101;45.534;10.218;2023-04-24T01:29:17;10.77;;;4.35;;
79624;SDS011;69101;45.534;10.218;2023-04-24T01:31:43;10.40;;;4.20;;
79624;SDS011;69101;45.534;10.218;2023-04-24T01:34:08;10.75;;;4.00;;
79624;SDS011;69101;45.534;10.218;2023-04-24T01:36:35;9.65;;;3.67;;
79624;SDS011;69101;45.534;10.218;2023-04-24T01:39:01;10.27;;;3.92;;
79624;SDS011;69101;45.534;10.218;2023-04-24T01:41:26;10.32;;;4.07;;
79624;SDS011;69101;45.534;10.218;2023-04-24T01:43:53;10.20;;;3.80;;
79624;SDS011;69101;45.534;10.218;2023-04-24T01:46:18;9.77;;;3.80;;
79624;SDS011;69101;45.534;10.218;2023-04-24T01:48:44;10.95;;;4.07;;
79624;SDS011;69101;45.534;10.218;2023-04-24T01:51:10;10.10;;;3.67;;
79624;SDS011;69101;45.534;10.218;2023-04-24T01:53:35;11.38;;;4.03;;
79624;SDS011;69101;45.534;10.218;2023-04-24T01:56:01;10.00;;;3.95;;
79624;SDS011;69101;45.534;10.218;2023-04-24T01:58:27;10.05;;;3.67;;
79624;SDS011;69101;45.534;10.218;2023-04-24T02:00:53;10.13;;;4.05;;
79624;SDS011;69101;45.534;10.218;2023-04-24T02:03:21;10.45;;;3.75;;
79624;SDS011;69101;45.534;10.218;2023-04-24T02:05:46;9.73;;;3.72;;
79624;SDS011;69101;45.534;10.218;2023-04-24T02:08:12;9.75;;;3.83;;
79624;SDS011;69101;45.534;10.218;2023-04-24T02:10:37;9.38;;;3.70;;
79624;SDS011;69101;45.534;10.218;2023-04-24T02:13:03;9.18;;;3.60;;
79624;SDS011;69101;45.534;10.218;2023-04-24T02:15:29;9.68;;;3.60;;
79624;SDS011;69101;45.534;10.218;2023-04-24T02:17:55;10.18;;;3.70;;
79624;SDS011;69101;45.534;10.218;2023-04-24T02:20:20;9.90;;;3.72;;
79624;SDS011;69101;45.534;10.218;2023-04-24T02:22:46;10.10;;;3.63;;
79624;SDS011;69101;45.534;10.218;2023-04-24T02:25:11;10.13;;;3.88;;
79624;SDS011;69101;45.534;10.218;2023-04-24T02:27:36;10.93;;;4.10;;
79624;SDS011;69101;45.534;10.218;2023-04-24T02:30:02;10.35;;;4.03;;
79624;SDS011;69101;45.534;10.218;2023-04-24T02:32:28;10.18;;;3.80;;
79624;SDS011;69101;45.534;10.218;2023-04-24T02:34:53;9.75;;;3.72;;
79624;SDS011;69101;45.534;10.218;2023-04-24T02:37:19;9.52;;;3.83;;
79624;SDS011;69101;45.534;10.218;2023-04-24T02:39:44;8.80;;;3.33;;
79624;SDS011;69101;45.534;10.218;2023-04-24T02:42:09;10.40;;;4.20;;
79624;SDS011;69101;45.534;10.218;2023-04-24T02:44:35;9.93;;;3.75;;
79624;SDS011;69101;45.534;10.218;2023-04-24T02:47:00;10.50;;;3.70;;
79624;SDS011;69101;45.534;10.218;2023-04-24T02:49:25;9.65;;;3.40;;
79624;SDS011;69101;45.534;10.218;2023-04-24T02:51:51;9.35;;;3.67;;
79624;SDS011;69101;45.534;10.218;2023-04-24T02:54:17;9.45;;;3.70;;
79624;SDS011;69101;45.534;10.218;2023-04-24T02:56:42;9.50;;;3.53;;
79624;SDS011;69101;45.534;10.218;2023-04-24T02:59:08;9.20;;;3.30;;
79624;SDS011;69101;45.534;10.218;2023-04-24T03:01:33;9.05;;;3.38;;
79624;SDS011;69101;45.534;10.218;2023-04-24T03:03:58;9.43;;;3.50;;
79624;SDS011;69101;45.534;10.218;2023-04-24T03:06:24;9.40;;;3.30;;
79624;SDS011;69101;45.534;10.218;2023-04-24T03:08:49;9.02;;;3.22;;
79624;SDS011;69101;45.534;10.218;2023-04-24T03:11:15;9.10;;;3.50;;
79624;SDS011;69101;45.534;10.218;2023-04-24T03:13:40;9.48;;;3.70;;
79624;SDS011;69101;45.534;10.218;2023-04-24T03:16:05;10.70;;;3.70;;
79624;SDS011;69101;45.534;10.218;2023-04-24T03:18:31;9.52;;;3.80;;
79624;SDS011;69101;45.534;10.218;2023-04-24T03:20:56;10.13;;;3.80;;
79624;SDS011;69101;45.534;10.218;2023-04-24T03:23:21;11.27;;;3.60;;
79624;SDS011;69101;45.534;10.218;2023-04-24T03:25:47;10.52;;;4.10;;
79624;SDS011;69101;45.534;10.218;2023-04-24T03:28:13;9.88;;;4.05;;
79624;SDS011;69101;45.534;10.218;2023-04-24T03:30:38;10.10;;;4.00;;
79624;SDS011;69101;45.534;10.218;2023-04-24T03:33:04;9.95;;;3.70;;
79624;SDS011;69101;45.534;10.218;2023-04-24T03:35:29;10.15;;;3.58;;
79624;SDS011;69101;45.534;10.218;2023-04-24T03:37:55;10.25;;;3.60;;
79624;SDS011;69101;45.534;10.218;2023-04-24T03:40:20;9.95;;;3.70;;
79624;SDS011;69101;45.534;10.218;2023-04-24T03:42:46;9.68;;;3.80;;
79624;SDS011;69101;45.534;10.218;2023-04-24T03:45:11;9.60;;;3.70;;
79624;SDS011;69101;45.534;10.218;2023-04-24T03:47:36;9.05;;;3.58;;
79624;SDS011;69101;45.534;10.218;2023-04-24T03:50:02;9.77;;;3.67;;
79624;SDS011;69101;45.534;10.218;2023-04-24T03:52:27;9.85;;;3.75;;
79624;SDS011;69101;45.534;10.218;2023-04-24T03:54:52;10.75;;;3.90;;
79624;SDS011;69101;45.534;10.218;2023-04-24T03:57:18;11.13;;;4.13;;
79624;SDS011;69101;45.534;10.218;2023-04-24T03:59:43;9.65;;;3.55;;
79624;SDS011;69101;45.534;10.218;2023-04-24T04:02:09;10.13;;;3.78;;
79624;SDS011;69101;45.534;10.218;2023-04-24T04:04:34;9.80;;;3.63;;
79624;SDS011;69101;45.534;10.218;2023-04-24T04:07:00;9.73;;;3.63;;
79624;SDS011;69101;45.534;10.218;2023-04-24T04:09:30;10.32;;;4.13;;
79624;SDS011;69101;45.534;10.218;2023-04-24T04:11:56;9.93;;;3.60;;
79624;SDS011;69101;45.534;10.218;2023-04-24T04:14:21;9.32;;;3.42;;
79624;SDS011;69101;45.534;10.218;2023-04-24T04:16:47;10.20;;;3.50;;
79624;SDS011;69101;45.534;10.218;2023-04-24T04:19:12;9.70;;;3.50;;
79624;SDS011;69101;45.534;10.218;2023-04-24T04:21:38;9.88;;;3.40;;
79624;SDS011;69101;45.534;10.218;2023-04-24T04:24:03;9.30;;;3.53;;
79624;SDS011;69101;45.534;10.218;2023-04-24T04:26:30;9.65;;;3.70;;
79624;SDS011;69101;45.534;10.218;2023-04-24T04:28:57;9.70;;;3.53;;
79624;SDS011;69101;45.534;10.218;2023-04-24T04:31:23;9.43;;;3.28;;
79624;SDS011;69101;45.534;10.218;2023-04-24T04:33:49;9.73;;;3.47;;
79624;SDS011;69101;45.534;10.218;2023-04-24T04:36:15;9.10;;;3.38;;
79624;SDS011;69101;45.534;10.218;2023-04-24T04:38:42;9.77;;;3.47;;
79624;SDS011;69101;45.534;10.218;2023-04-24T04:41:08;9.20;;;3.25;;
79624;SDS011;69101;45.534;10.218;2023-04-24T04:43:33;9.38;;;3.67;;
79624;SDS011;69101;45.534;10.218;2023-04-24T04:45:59;10.52;;;3.67;;
79624;SDS011;69101;45.534;10.218;2023-04-24T04:48:25;9.30;;;3.22;;
79624;SDS011;69101;45.534;10.218;2023-04-24T04:50:52;10.23;;;4.00;;
79624;SDS011;69101;45.534;10.218;2023-04-24T04:53:17;9.65;;;3.58;;
79624;SDS011;69101;45.534;10.218;2023-04-24T04:55:42;10.25;;;3.72;;
79624;SDS011;69101;45.534;10.218;2023-04-24T04:58:08;9.25;;;3.60;;
79624;SDS011;69101;45.534;10.218;2023-04-24T05:00:33;10.38;;;3.58;;
79624;SDS011;69101;45.534;10.218;2023-04-24T05:03:02;10.35;;;3.70;;
79624;SDS011;69101;45.534;10.218;2023-04-24T05:05:27;10.18;;;3.70;;
79624;SDS011;69101;45.534;10.218;2023-04-24T05:07:53;11.00;;;3.75;;
79624;SDS011;69101;45.534;10.218;2023-04-24T05:10:19;10.75;;;3.60;;
79624;SDS011;69101;45.534;10.218;2023-04-24T05:12:44;9.75;;;3.60;;
79624;SDS011;69101;45.534;10.218;2023-04-24T05:15:10;10.18;;;3.55;;
79624;SDS011;69101;45.534;10.218;2023-04-24T05:17:35;9.10;;;3.28;;
79624;SDS011;69101;45.534;10.218;2023-04-24T05:20:01;10.23;;;3.50;;
79624;SDS011;69101;45.534;10.218;2023-04-24T05:22:30;9.32;;;3.40;;
79624;SDS011;69101;45.534;10.218;2023-04-24T05:24:56;10.38;;;3.28;;
79624;SDS011;69101;45.534;10.218;2023-04-24T05:27:21;8.68;;;3.00;;
79624;SDS011;69101;45.534;10.218;2023-04-24T05:29:47;8.50;;;3.00;;
79624;SDS011;69101;45.534;10.218;2023-04-24T05:32:12;9.68;;;3.15;;
79624;SDS011;69101;45.534;10.218;2023-04-24T05:34:37;8.50;;;2.80;;
79624;SDS011;69101;45.534;10.218;2023-04-24T05:37:02;9.27;;;2.95;;
79624;SDS011;69101;45.534;10.218;2023-04-24T05:39:32;8.30;;;2.63;;
79624;SDS011;69101;45.534;10.218;2023-04-24T05:41:58;8.82;;;2.92;;
79624;SDS011;69101;45.534;10.218;2023-04-24T05:44:24;9.27;;;3.28;;
79624;SDS011;69101;45.534;10.218;2023-04-24T05:46:49;8.20;;;2.72;;
79624;SDS011;69101;45.534;10.218;2023-04-24T05:49:14;8.88;;;3.00;;
79624;SDS011;69101;45.534;10.218;2023-04-24T05:51:40;8.60;;;2.88;;
79624;SDS011;69101;45.534;10.218;2023-04-24T05:54:06;8.85;;;2.70;;
79624;SDS011;69101;45.534;10.218;2023-04-24T05:56:31;9.82;;;3.17;;
79624;SDS011;69101;45.534;10.218;2023-04-24T05:58:57;9.60;;;3.03;;
79624;SDS011;69101;45.534;10.218;2023-04-24T06:01:22;8.77;;;2.80;;
79624;SDS011;69101;45.534;10.218;2023-04-24T06:03:48;8.60;;;3.00;;
79624;SDS011;69101;45.534;10.218;2023-04-24T06:06:13;9.63;;;3.10;;
79624;SDS011;69101;45.534;10.218;2023-04-24T06:08:39;9.50;;;3.13;;
79624;SDS011;69101;45.534;10.218;2023-04-24T06:11:04;9.38;;;3.20;;
79624;SDS011;69101;45.534;10.218;2023-04-24T06:13:29;8.60;;;2.97;;
79624;SDS011;69101;45.534;10.218;2023-04-24T06:15:55;9.85;;;3.05;;
79624;SDS011;69101;45.534;10.218;2023-04-24T06:18:20;9.90;;;3.03;;
79624;SDS011;69101;45.534;10.218;2023-04-24T06:20:46;9.25;;;2.92;;
79624;SDS011;69101;45.534;10.218;2023-04-24T06:23:12;9.35;;;3.13;;
79624;SDS011;69101;45.534;10.218;2023-04-24T06:25:37;9.82;;;2.95;;
79624;SDS011;69101;45.534;10.218;2023-04-24T06:28:03;9.23;;;3.25;;
79624;SDS011;69101;45.534;10.218;2023-04-24T06:30:28;9.10;;;3.10;;
79624;SDS011;69101;45.534;10.218;2023-04-24T06:32:54;9.20;;;2.90;;
79624;SDS011;69101;45.534;10.218;2023-04-24T06:35:19;9.48;;;3.10;;
79624;SDS011;69101;45.534;10.218;2023-04-24T06:37:45;9.05;;;3.10;;
79624;SDS011;69101;45.534;10.218;2023-04-24T06:40:11;9.02;;;2.97;;
79624;SDS011;69101;45.534;10.218;2023-04-24T06:42:36;9.60;;;3.00;;
79624;SDS011;69101;45.534;10.218;2023-04-24T06:45:02;9.10;;;2.90;;
79624;SDS011;69101;45.534;10.218;2023-04-24T06:47:28;8.20;;;2.70;;
79624;SDS011;69101;45.534;10.218;2023-04-24T06:49:53;8.55;;;2.70;;
79624;SDS011;69101;45.534;10.218;2023-04-24T06:52:20;8.88;;;2.75;;
79624;SDS011;69101;45.534;10.218;2023-04-24T06:54:45;8.95;;;3.10;;
79624;SDS011;69101;45.534;10.218;2023-04-24T06:57:10;8.80;;;2.95;;
79624;SDS011;69101;45.534;10.218;2023-04-24T06:59:36;9.35;;;3.20;;
79624;SDS011;69101;45.534;10.218;2023-04-24T07:02:02;9.63;;;3.25;;
79624;SDS011;69101;45.534;10.218;2023-04-24T07:04:28;9.40;;;3.30;;
79624;SDS011;69101;45.534;10.218;2023-04-24T07:06:53;9.00;;;3.30;;
79624;SDS011;69101;45.534;10.218;2023-04-24T07:09:20;9.07;;;3.20;;
79624;SDS011;69101;45.534;10.218;2023-04-24T07:11:47;10.07;;;3.20;;
79624;SDS011;69101;45.534;10.218;2023-04-24T07:14:13;9.02;;;3.00;;
79624;SDS011;69101;45.534;10.218;2023-04-24T07:16:38;8.82;;;3.08;;
79624;SDS011;69101;45.534;10.218;2023-04-24T07:19:04;8.80;;;3.05;;
79624;SDS011;69101;45.534;10.218;2023-04-24T07:21:29;9.88;;;3.17;;
79624;SDS011;69101;45.534;10.218;2023-04-24T07:23:56;10.15;;;2.80;;
79624;SDS011;69101;45.534;10.218;2023-04-24T07:26:22;9.07;;;2.70;;
79624;SDS011;69101;45.534;10.218;2023-04-24T07:28:47;10.38;;;2.90;;
79624;SDS011;69101;45.534;10.218;2023-04-24T07:31:13;8.32;;;2.80;;
79624;SDS011;69101;45.534;10.218;2023-04-24T07:33:38;8.25;;;2.72;;
79624;SDS011;69101;45.534;10.218;2023-04-24T07:36:03;9.10;;;2.65;;
79624;SDS011;69101;45.534;10.218;2023-04-24T07:38:29;7.60;;;2.50;;
79624;SDS011;69101;45.534;10.218;2023-04-24T07:40:56;9.43;;;2.65;;
79624;SDS011;69101;45.534;10.218;2023-04-24T07:43:21;8.55;;;2.70;;
79624;SDS011;69101;45.534;10.218;2023-04-24T07:45:48;8.10;;;2.58;;
79624;SDS011;69101;45.534;10.218;2023-04-24T07:48:14;8.80;;;2.45;;
79624;SDS011;69101;45.534;10.218;2023-04-24T07:50:41;8.10;;;2.45;;
79624;SDS011;69101;45.534;10.218;2023-04-24T07:53:07;8.77;;;2.33;;
79624;SDS011;69101;45.534;10.218;2023-04-24T07:55:32;8.38;;;2.55;;
79624;SDS011;69101;45.534;10.218;2023-04-24T07:57:57;8.32;;;2.70;;
79624;SDS011;69101;45.534;10.218;2023-04-24T08:00:23;8.38;;;2.53;;
79624;SDS011;69101;45.534;10.218;2023-04-24T08:02:48;8.57;;;2.60;;
79624;SDS011;69101;45.534;10.218;2023-04-24T08:05:13;8.38;;;2.63;;
79624;SDS011;69101;45.534;10.218;2023-04-24T08:07:39;8.73;;;2.50;;
79624;SDS011;69101;45.534;10.218;2023-04-24T08:10:04;8.75;;;2.30;;
79624;SDS011;69101;45.534;10.218;2023-04-24T08:12:31;8.60;;;2.70;;
79624;SDS011;69101;45.534;10.218;2023-04-24T08:14:56;10.10;;;3.03;;
79624;SDS011;69101;45.534;10.218;2023-04-24T08:17:21;10.10;;;2.90;;
79624;SDS011;69101;45.534;10.218;2023-04-24T08:19:47;10.02;;;3.40;;
79624;SDS011;69101;45.534;10.218;2023-04-24T08:22:13;9.93;;;3.22;;
79624;SDS011;69101;45.534;10.218;2023-04-24T08:24:39;9.75;;;3.15;;
79624;SDS011;69101;45.534;10.218;2023-04-24T08:27:05;12.02;;;3.38;;
79624;SDS011;69101;45.534;10.218;2023-04-24T08:29:30;10.02;;;3.10;;
79624;SDS011;69101;45.534;10.218;2023-04-24T08:31:56;11.68;;;3.30;;
79624;SDS011;69101;45.534;10.218;2023-04-24T08:34:22;9.90;;;3.17;;
79624;SDS011;69101;45.534;10.218;2023-04-24T08:36:47;9.30;;;3.05;;
79624;SDS011;69101;45.534;10.218;2023-04-24T08:39:13;9.75;;;3.30;;
79624;SDS011;69101;45.534;10.218;2023-04-24T08:41:39;9.65;;;3.25;;
79624;SDS011;69101;45.534;10.218;2023-04-24T08:44:07;10.57;;;4.03;;
79624;SDS011;69101;45.534;10.218;2023-04-24T08:46:34;9.65;;;2.78;;
79624;SDS011;69101;45.534;10.218;2023-04-24T08:49:01;13.18;;;2.65;;
79624;SDS011;69101;45.534;10.218;2023-04-24T08:51:27;10.95;;;2.75;;
79624;SDS011;69101;45.534;10.218;2023-04-24T08:53:53;10.43;;;2.50;;
79624;SDS011;69101;45.534;10.218;2023-04-24T08:56:20;9.63;;;2.60;;
79624;SDS011;69101;45.534;10.218;2023-04-24T08:58:48;11.98;;;2.60;;
79624;SDS011;69101;45.534;10.218;2023-04-24T09:01:16;10.60;;;2.50;;
79624;SDS011;69101;45.534;10.218;2023-04-24T09:03:43;8.77;;;2.30;;
79624;SDS011;69101;45.534;10.218;2023-04-24T09:06:10;7.63;;;2.28;;
79624;SDS011;69101;45.534;10.218;2023-04-24T09:08:36;9.68;;;2.53;;
79624;SDS011;69101;45.534;10.218;2023-04-24T09:11:03;9.18;;;2.60;;
79624;SDS011;69101;45.534;10.218;2023-04-24T09:13:30;8.52;;;2.40;;
79624;SDS011;69101;45.534;10.218;2023-04-24T09:15:56;9.15;;;2.38;;
79624;SDS011;69101;45.534;10.218;2023-04-24T09:18:22;7.90;;;2.50;;
79624;SDS011;69101;45.534;10.218;2023-04-24T09:23:45;10.02;;;2.47;;
79624;SDS011;69101;45.534;10.218;2023-04-24T09:26:10;7.50;;;2.17;;
79624;SDS011;69101;45.534;10.218;2023-04-24T09:28:39;10.65;;;2.42;;
79624;SDS011;69101;45.534;10.218;2023-04-24T09:33:35;7.50;;;2.33;;
79624;SDS011;69101;45.534;10.218;2023-04-24T09:36:01;9.93;;;2.33;;
79624;SDS011;69101;45.534;10.218;2023-04-24T09:38:31;8.05;;;2.50;;
79624;SDS011;69101;45.534;10.218;2023-04-24T09:41:04;8.40;;;2.15;;
79624;SDS011;69101;45.534;10.218;2023-04-24T09:43:31;7.97;;;2.25;;
79624;SDS011;69101;45.534;10.218;2023-04-24T09:45:57;8.77;;;2.83;;
79624;SDS011;69101;45.534;10.218;2023-04-24T09:48:33;9.20;;;2.83;;
79624;SDS011;69101;45.534;10.218;2023-04-24T09:51:01;7.82;;;2.40;;
79624;SDS011;69101;45.534;10.218;2023-04-24T09:53:28;9.35;;;2.67;;
79624;SDS011;69101;45.534;10.218;2023-04-24T09:55:54;9.48;;;2.58;;
79624;SDS011;69101;45.534;10.218;2023-04-24T09:58:26;8.18;;;2.20;;
79624;SDS011;69101;45.534;10.218;2023-04-24T10:00:55;8.32;;;2.60;;
79624;SDS011;69101;45.534;10.218;2023-04-24T10:03:21;9.10;;;2.78;;
79624;SDS011;69101;45.534;10.218;2023-04-24T10:05:51;8.38;;;2.47;;
79624;SDS011;69101;45.534;10.218;2023-04-24T10:08:16;8.63;;;2.25;;
79624;SDS011;69101;45.534;10.218;2023-04-24T10:10:43;8.75;;;2.75;;
79624;SDS011;69101;45.534;10.218;2023-04-24T10:13:10;8.40;;;2.33;;
79624;SDS011;69101;45.534;10.218;2023-04-24T10:15:36;8.23;;;2.20;;
79624;SDS011;69101;45.534;10.218;2023-04-24T10:18:04;8.65;;;2.58;;
79624;SDS011;69101;45.534;10.218;2023-04-24T10:20:31;9.15;;;2.38;;
79624;SDS011;69101;45.534;10.218;2023-04-24T10:22:57;9.63;;;2.33;;
79624;SDS011;69101;45.534;10.218;2023-04-24T10:25:28;8.70;;;2.38;;
79624;SDS011;69101;45.534;10.218;2023-04-24T10:27:56;9.50;;;2.60;;
79624;SDS011;69101;45.534;10.218;2023-04-24T10:30:24;9.52;;;2.47;;
79624;SDS011;69101;45.534;10.218;2023-04-24T10:32:51;8.52;;;2.40;;
79624;SDS011;69101;45.534;10.218;2023-04-24T10:35:16;12.23;;;2.20;;
79624;SDS011;69101;45.534;10.218;2023-04-24T10:37:45;8.00;;;2.50;;
79624;SDS011;69101;45.534;10.218;2023-04-24T10:40:33;8.30;;;2.13;;
79624;SDS011;69101;45.534;10.218;2023-04-24T10:43:01;8.73;;;2.30;;
79624;SDS011;69101;45.534;10.218;2023-04-24T10:45:27;8.93;;;2.20;;
79624;SDS011;69101;45.534;10.218;2023-04-24T10:48:26;7.57;;;2.00;;
79624;SDS011;69101;45.534;10.218;2023-04-24T10:50:52;8.10;;;2.22;;
79624;SDS011;69101;45.534;10.218;2023-04-24T10:53:22;7.40;;;2.30;;
79624;SDS011;69101;45.534;10.218;2023-04-24T10:58:14;8.27;;;2.30;;
79624;SDS011;69101;45.534;10.218;2023-04-24T11:00:41;8.55;;;2.22;;
79624;SDS011;69101;45.534;10.218;2023-04-24T11:03:23;7.88;;;2.10;;
79624;SDS011;69101;45.534;10.218;2023-04-24T11:10:55;8.93;;;2.30;;
79624;SDS011;69101;45.534;10.218;2023-04-24T11:13:23;7.97;;;2.30;;
79624;SDS011;69101;45.534;10.218;2023-04-24T11:19:08;9.25;;;2.38;;
79624;SDS011;69101;45.534;10.218;2023-04-24T11:21:46;8.15;;;2.00;;
79624;SDS011;69101;45.534;10.218;2023-04-24T11:24:39;8.85;;;2.20;;
79624;SDS011;69101;45.534;10.218;2023-04-24T11:27:14;7.63;;;2.08;;
79624;SDS011;69101;45.534;10.218;2023-04-24T11:34:55;8.95;;;2.20;;
79624;SDS011;69101;45.534;10.218;2023-04-24T11:37:22;7.68;;;2.03;;
79624;SDS011;69101;45.534;10.218;2023-04-24T11:39:53;8.30;;;2.20;;
79624;SDS011;69101;45.534;10.218;2023-04-24T11:42:22;8.40;;;2.10;;
79624;SDS011;69101;45.534;10.218;2023-04-24T11:44:49;8.48;;;2.08;;
79624;SDS011;69101;45.534;10.218;2023-04-24T11:47:15;6.95;;;2.00;;
79624;SDS011;69101;45.534;10.218;2023-04-24T11:49:40;6.95;;;1.90;;
79624;SDS011;69101;45.534;10.218;2023-04-24T11:52:06;8.30;;;2.17;;
79624;SDS011;69101;45.534;10.218;2023-04-24T11:54:32;7.93;;;2.08;;
79624;SDS011;69101;45.534;10.218;2023-04-24T11:56:57;7.95;;;2.10;;
79624;SDS011;69101;45.534;10.218;2023-04-24T11:59:23;7.97;;;2.05;;
79624;SDS011;69101;45.534;10.218;2023-04-24T12:01:48;8.32;;;2.20;;
79624;SDS011;69101;45.534;10.218;2023-04-24T12:04:15;7.07;;;2.00;;
79624;SDS011;69101;45.534;10.218;2023-04-24T12:07:03;7.22;;;2.20;;
79624;SDS011;69101;45.534;10.218;2023-04-24T12:09:40;7.38;;;2.00;;
79624;SDS011;69101;45.534;10.218;2023-04-24T12:12:12;7.90;;;2.10;;
79624;SDS011;69101;45.534;10.218;2023-04-24T12:14:42;7.15;;;2.03;;
79624;SDS011;69101;45.534;10.218;2023-04-24T12:17:15;7.72;;;2.00;;
79624;SDS011;69101;45.534;10.218;2023-04-24T12:19:47;7.88;;;2.10;;
79624;SDS011;69101;45.534;10.218;2023-04-24T12:22:13;8.27;;;2.20;;
79624;SDS011;69101;45.534;10.218;2023-04-24T12:24:57;6.55;;;1.95;;
79624;SDS011;69101;45.534;10.218;2023-04-24T12:27:26;7.28;;;1.90;;
79624;SDS011;69101;45.534;10.218;2023-04-24T12:29:58;7.90;;;2.25;;
79624;SDS011;69101;45.534;10.218;2023-04-24T12:32:25;7.60;;;2.10;;
79624;SDS011;69101;45.534;10.218;2023-04-24T12:34:51;7.22;;;1.83;;
79624;SDS011;69101;45.534;10.218;2023-04-24T12:37:17;6.65;;;1.90;;
79624;SDS011;69101;45.534;10.218;2023-04-24T12:42:29;7.22;;;1.98;;
79624;SDS011;69101;45.534;10.218;2023-04-24T12:44:59;7.72;;;2.10;;
79624;SDS011;69101;45.534;10.218;2023-04-24T12:47:26;6.70;;;1.73;;
79624;SDS011;69101;45.534;10.218;2023-04-24T12:49:52;6.95;;;1.88;;
79624;SDS011;69101;45.534;10.218;2023-04-24T12:52:18;7.15;;;1.83;;
79624;SDS011;69101;45.534;10.218;2023-04-24T12:54:47;7.35;;;2.00;;
79624;SDS011;69101;45.534;10.218;2023-04-24T12:57:12;7.20;;;2.00;;
79624;SDS011;69101;45.534;10.218;2023-04-24T12:59:38;7.93;;;1.90;;
79624;SDS011;69101;45.534;10.218;2023-04-24T13:02:04;6.50;;;1.92;;
79624;SDS011;69101;45.534;10.218;2023-04-24T13:04:30;8.57;;;2.30;;
79624;SDS011;69101;45.534;10.218;2023-04-24T13:06:55;7.50;;;2.00;;
79624;SDS011;69101;45.534;10.218;2023-04-24T13:09:20;7.80;;;2.40;;
79624;SDS011;69101;45.534;10.218;2023-04-24T13:11:46;7.53;;;1.80;;
79624;SDS011;69101;45.534;10.218;2023-04-24T13:14:11;7.10;;;2.05;;
79624;SDS011;69101;45.534;10.218;2023-04-24T13:16:37;6.95;;;1.83;;
79624;SDS011;69101;45.534;10.218;2023-04-24T13:19:02;7.55;;;2.15;;
79624;SDS011;69101;45.534;10.218;2023-04-24T13:21:28;5.18;;;1.67;;
79624;SDS011;69101;45.534;10.218;2023-04-24T13:23:55;6.80;;;1.80;;
79624;SDS011;69101;45.534;10.218;2023-04-24T13:26:21;6.82;;;1.88;;
79624;SDS011;69101;45.534;10.218;2023-04-24T13:28:46;8.10;;;2.60;;
79624;SDS011;69101;45.534;10.218;2023-04-24T13:31:11;7.70;;;2.00;;
79624;SDS011;69101;45.534;10.218;2023-04-24T13:33:37;6.95;;;1.88;;
79624;SDS011;69101;45.534;10.218;2023-04-24T13:36:02;7.38;;;2.05;;
79624;SDS011;69101;45.534;10.218;2023-04-24T13:38:28;6.45;;;1.90;;
79624;SDS011;69101;45.534;10.218;2023-04-24T13:40:53;6.78;;;1.90;;
79624;SDS011;69101;45.534;10.218;2023-04-24T13:43:19;9.23;;;2.58;;
79624;SDS011;69101;45.534;10.218;2023-04-24T13:45:44;7.28;;;2.20;;
79624;SDS011;69101;45.534;10.218;2023-04-24T13:48:09;8.45;;;2.83;;
79624;SDS011;69101;45.534;10.218;2023-04-24T13:50:35;8.30;;;2.03;;
79624;SDS011;69101;45.534;10.218;2023-04-24T13:53:01;7.60;;;2.00;;
79624;SDS011;69101;45.534;10.218;2023-04-24T13:55:27;7.22;;;2.10;;
79624;SDS011;69101;45.534;10.218;2023-04-24T13:57:52;6.40;;;1.80;;
79624;SDS011;69101;45.534;10.218;2023-04-24T14:00:20;6.78;;;1.95;;
79624;SDS011;69101;45.534;10.218;2023-04-24T14:02:46;7.65;;;2.00;;
79624;SDS011;69101;45.534;10.218;2023-04-24T14:05:12;6.20;;;1.80;;
79624;SDS011;69101;45.534;10.218;2023-04-24T14:07:40;7.13;;;1.92;;
79624;SDS011;69101;45.534;10.218;2023-04-24T14:10:06;5.45;;;1.60;;
79624;SDS011;69101;45.534;10.218;2023-04-24T14:12:31;7.07;;;1.80;;
79624;SDS011;69101;45.534;10.218;2023-04-24T14:14:57;7.45;;;2.00;;
79624;SDS011;69101;45.534;10.218;2023-04-24T14:17:22;6.68;;;1.65;;
79624;SDS011;69101;45.534;10.218;2023-04-24T14:19:48;8.50;;;2.13;;
79624;SDS011;69101;45.534;10.218;2023-04-24T14:22:13;7.03;;;1.80;;
79624;SDS011;69101;45.534;10.218;2023-04-24T14:24:38;5.88;;;1.70;;
79624;SDS011;69101;45.534;10.218;2023-04-24T14:27:04;8.10;;;1.88;;
79624;SDS011;69101;45.534;10.218;2023-04-24T14:29:29;6.38;;;1.77;;
79624;SDS011;69101;45.534;10.218;2023-04-24T14:31:55;6.53;;;1.77;;
79624;SDS011;69101;45.534;10.218;2023-04-24T14:34:20;6.35;;;1.70;;
79624;SDS011;69101;45.534;10.218;2023-04-24T14:36:45;6.45;;;1.80;;
79624;SDS011;69101;45.534;10.218;2023-04-24T14:39:11;7.03;;;1.80;;
79624;SDS011;69101;45.534;10.218;2023-04-24T14:41:37;6.35;;;1.70;;
79624;SDS011;69101;45.534;10.218;2023-04-24T14:44:04;5.97;;;1.70;;
79624;SDS011;69101;45.534;10.218;2023-04-24T14:46:30;6.32;;;1.70;;
79624;SDS011;69101;45.534;10.218;2023-04-24T14:48:58;5.88;;;1.60;;
79624;SDS011;69101;45.534;10.218;2023-04-24T14:51:24;5.60;;;1.75;;
79624;SDS011;69101;45.534;10.218;2023-04-24T14:53:50;7.07;;;1.67;;